sensor_id;sensor_type;location;lat;lon;timestamp;P1;durP1;ratioP1;P2;durP2;ratioP2
8413;SDS011;4244;48.684;9.028;2022-10-24T00:02:04;3.60;;;1.10;;
8413;SDS011;4244;48.684;9.028;2022-10-24T00:04:33;3.20;;;1.43;;
8413;SDS011;4244;48.684;9.028;2022-10-24T00:07:00;3.40;;;1.43;;
8413;SDS011;4244;48.684;9.028;2022-10-24T00:09:25;4.60;;;1.43;;
8413;SDS011;4244;48.684;9.028;2022-10-24T00:11:51;3.60;;;1.30;;
8413;SDS011;4244;48.684;9.028;2022-10-24T00:14:17;4.13;;;1.23;;
8413;SDS011;4244;48.684;9.028;2022-10-24T00:16:42;7.03;;;1.90;;
8413;SDS011;4244;48.684;9.028;2022-10-24T00:19:08;5.80;;;1.60;;
8413;SDS011;4244;48.684;9.028;2022-10-24T00:21:33;4.33;;;1.70;;
8413;SDS011;4244;48.684;9.028;2022-10-24T00:23:59;5.30;;;1.57;;
8413;SDS011;4244;48.684;9.028;2022-10-24T00:26:25;3.40;;;1.53;;
8413;SDS011;4244;48.684;9.028;2022-10-24T00:28:50;4.27;;;1.80;;
8413;SDS011;4244;48.684;9.028;2022-10-24T00:31:16;4.20;;;1.43;;
8413;SDS011;4244;48.684;9.028;2022-10-24T00:33:43;6.10;;;2.00;;
8413;SDS011;4244;48.684;9.028;2022-10-24T00:36:10;2.73;;;1.13;;
8413;SDS011;4244;48.684;9.028;2022-10-24T00:38:36;4.50;;;1.60;;
8413;SDS011;4244;48.684;9.028;2022-10-24T00:41:02;4.73;;;1.87;;
8413;SDS011;4244;48.684;9.028;2022-10-24T00:43:28;5.57;;;1.73;;
8413;SDS011;4244;48.684;9.028;2022-10-24T00:45:58;5.17;;;2.20;;
8413;SDS011;4244;48.684;9.028;2022-10-24T00:51:10;5.60;;;1.80;;
8413;SDS011;4244;48.684;9.028;2022-10-24T00:53:41;4.80;;;1.57;;
8413;SDS011;4244;48.684;9.028;2022-10-24T00:56:08;4.37;;;1.80;;
8413;SDS011;4244;48.684;9.028;2022-10-24T00:58:36;3.00;;;1.20;;
8413;SDS011;4244;48.684;9.028;2022-10-24T01:01:03;3.53;;;1.50;;
8413;SDS011;4244;48.684;9.028;2022-10-24T01:03:30;4.53;;;1.53;;
8413;SDS011;4244;48.684;9.028;2022-10-24T01:19:37;3.70;;;1.43;;
8413;SDS011;4244;48.684;9.028;2022-10-24T01:30:06;3.60;;;1.87;;
8413;SDS011;4244;48.684;9.028;2022-10-24T01:40:19;4.73;;;2.33;;
8413;SDS011;4244;48.684;9.028;2022-10-24T01:42:46;3.93;;;2.40;;
8413;SDS011;4244;48.684;9.028;2022-10-24T01:45:15;4.37;;;2.27;;
8413;SDS011;4244;48.684;9.028;2022-10-24T01:47:48;5.00;;;2.00;;
8413;SDS011;4244;48.684;9.028;2022-10-24T01:50:17;6.87;;;2.50;;
8413;SDS011;4244;48.684;9.028;2022-10-24T01:52:43;5.63;;;2.17;;
8413;SDS011;4244;48.684;9.028;2022-10-24T01:55:10;6.40;;;2.00;;
8413;SDS011;4244;48.684;9.028;2022-10-24T01:57:36;5.83;;;2.10;;
8413;SDS011;4244;48.684;9.028;2022-10-24T02:00:08;4.80;;;2.30;;
8413;SDS011;4244;48.684;9.028;2022-10-24T02:02:42;7.33;;;2.17;;
8413;SDS011;4244;48.684;9.028;2022-10-24T02:07:47;5.23;;;2.20;;
8413;SDS011;4244;48.684;9.028;2022-10-24T02:10:16;5.30;;;2.80;;
8413;SDS011;4244;48.684;9.028;2022-10-24T02:12:47;8.33;;;2.33;;
8413;SDS011;4244;48.684;9.028;2022-10-24T02:15:29;5.60;;;2.40;;
8413;SDS011;4244;48.684;9.028;2022-10-24T02:17:57;6.20;;;2.20;;
8413;SDS011;4244;48.684;9.028;2022-10-24T02:20:26;5.87;;;2.33;;
8413;SDS011;4244;48.684;9.028;2022-10-24T02:22:58;9.67;;;2.67;;
8413;SDS011;4244;48.684;9.028;2022-10-24T02:25:35;6.43;;;2.27;;
8413;SDS011;4244;48.684;9.028;2022-10-24T02:28:15;6.20;;;2.40;;
8413;SDS011;4244;48.684;9.028;2022-10-24T02:31:29;5.73;;;2.97;;
8413;SDS011;4244;48.684;9.028;2022-10-24T02:33:36;5.53;;;2.40;;
8413;SDS011;4244;48.684;9.028;2022-10-24T02:36:04;7.80;;;2.80;;
8413;SDS011;4244;48.684;9.028;2022-10-24T02:38:32;8.53;;;2.50;;
8413;SDS011;4244;48.684;9.028;2022-10-24T02:40:59;5.30;;;2.80;;
8413;SDS011;4244;48.684;9.028;2022-10-24T02:43:27;7.43;;;2.87;;
8413;SDS011;4244;48.684;9.028;2022-10-24T02:45:53;6.27;;;2.50;;
8413;SDS011;4244;48.684;9.028;2022-10-24T02:48:22;8.00;;;2.30;;
8413;SDS011;4244;48.684;9.028;2022-10-24T02:50:51;5.63;;;2.80;;
8413;SDS011;4244;48.684;9.028;2022-10-24T02:53:18;8.70;;;3.57;;
8413;SDS011;4244;48.684;9.028;2022-10-24T02:55:44;6.33;;;3.00;;
8413;SDS011;4244;48.684;9.028;2022-10-24T02:58:10;6.63;;;2.90;;
8413;SDS011;4244;48.684;9.028;2022-10-24T03:00:36;9.23;;;3.13;;
8413;SDS011;4244;48.684;9.028;2022-10-24T03:03:02;8.90;;;3.70;;
8413;SDS011;4244;48.684;9.028;2022-10-24T03:05:27;6.37;;;2.90;;
8413;SDS011;4244;48.684;9.028;2022-10-24T03:07:53;8.80;;;2.57;;
8413;SDS011;4244;48.684;9.028;2022-10-24T03:10:19;5.60;;;2.60;;
8413;SDS011;4244;48.684;9.028;2022-10-24T03:12:44;10.63;;;3.50;;
8413;SDS011;4244;48.684;9.028;2022-10-24T03:15:10;5.80;;;2.30;;
8413;SDS011;4244;48.684;9.028;2022-10-24T03:17:35;7.03;;;3.50;;
8413;SDS011;4244;48.684;9.028;2022-10-24T03:20:01;6.50;;;3.20;;
8413;SDS011;4244;48.684;9.028;2022-10-24T03:22:27;6.37;;;3.10;;
8413;SDS011;4244;48.684;9.028;2022-10-24T03:24:53;5.77;;;2.80;;
8413;SDS011;4244;48.684;9.028;2022-10-24T03:27:18;7.23;;;2.63;;
8413;SDS011;4244;48.684;9.028;2022-10-24T03:29:44;10.37;;;2.90;;
8413;SDS011;4244;48.684;9.028;2022-10-24T03:32:09;4.13;;;2.37;;
8413;SDS011;4244;48.684;9.028;2022-10-24T03:34:35;18.80;;;3.87;;
8413;SDS011;4244;48.684;9.028;2022-10-24T03:37:01;7.80;;;4.07;;
8413;SDS011;4244;48.684;9.028;2022-10-24T03:39:27;6.37;;;3.20;;
8413;SDS011;4244;48.684;9.028;2022-10-24T03:41:53;4.70;;;2.60;;
8413;SDS011;4244;48.684;9.028;2022-10-24T03:44:18;6.90;;;3.07;;
8413;SDS011;4244;48.684;9.028;2022-10-24T03:46:44;7.70;;;3.40;;
8413;SDS011;4244;48.684;9.028;2022-10-24T03:49:09;8.33;;;3.90;;
8413;SDS011;4244;48.684;9.028;2022-10-24T03:51:35;6.73;;;3.33;;
8413;SDS011;4244;48.684;9.028;2022-10-24T03:54:01;7.33;;;2.87;;
8413;SDS011;4244;48.684;9.028;2022-10-24T03:56:26;7.73;;;3.77;;
8413;SDS011;4244;48.684;9.028;2022-10-24T03:58:52;9.97;;;3.00;;
8413;SDS011;4244;48.684;9.028;2022-10-24T04:01:17;6.60;;;3.10;;
8413;SDS011;4244;48.684;9.028;2022-10-24T04:03:46;6.00;;;2.57;;
8413;SDS011;4244;48.684;9.028;2022-10-24T04:06:12;10.50;;;4.27;;
8413;SDS011;4244;48.684;9.028;2022-10-24T04:08:38;5.00;;;2.70;;
8413;SDS011;4244;48.684;9.028;2022-10-24T04:11:04;5.63;;;2.60;;
8413;SDS011;4244;48.684;9.028;2022-10-24T04:13:30;6.93;;;2.80;;
8413;SDS011;4244;48.684;9.028;2022-10-24T04:15:56;5.73;;;2.50;;
8413;SDS011;4244;48.684;9.028;2022-10-24T04:18:21;7.77;;;3.10;;
8413;SDS011;4244;48.684;9.028;2022-10-24T04:20:47;12.47;;;4.30;;
8413;SDS011;4244;48.684;9.028;2022-10-24T04:23:13;8.60;;;2.83;;
8413;SDS011;4244;48.684;9.028;2022-10-24T04:25:38;5.10;;;2.93;;
8413;SDS011;4244;48.684;9.028;2022-10-24T04:28:04;8.73;;;2.50;;
8413;SDS011;4244;48.684;9.028;2022-10-24T04:30:31;8.10;;;3.93;;
8413;SDS011;4244;48.684;9.028;2022-10-24T04:32:57;9.53;;;2.90;;
8413;SDS011;4244;48.684;9.028;2022-10-24T04:35:23;5.73;;;2.40;;
8413;SDS011;4244;48.684;9.028;2022-10-24T04:37:49;6.83;;;2.70;;
8413;SDS011;4244;48.684;9.028;2022-10-24T04:40:15;6.03;;;3.37;;
8413;SDS011;4244;48.684;9.028;2022-10-24T04:42:41;5.70;;;3.40;;
8413;SDS011;4244;48.684;9.028;2022-10-24T04:45:06;8.67;;;2.60;;
8413;SDS011;4244;48.684;9.028;2022-10-24T04:47:33;7.90;;;2.70;;
8413;SDS011;4244;48.684;9.028;2022-10-24T04:49:58;8.70;;;3.20;;
8413;SDS011;4244;48.684;9.028;2022-10-24T04:52:24;7.33;;;2.40;;
8413;SDS011;4244;48.684;9.028;2022-10-24T04:54:49;6.10;;;3.07;;
8413;SDS011;4244;48.684;9.028;2022-10-24T04:57:15;6.80;;;3.00;;
8413;SDS011;4244;48.684;9.028;2022-10-24T04:59:41;7.40;;;2.93;;
8413;SDS011;4244;48.684;9.028;2022-10-24T05:02:06;6.60;;;3.00;;
8413;SDS011;4244;48.684;9.028;2022-10-24T05:04:32;6.97;;;2.90;;
8413;SDS011;4244;48.684;9.028;2022-10-24T05:06:57;7.60;;;2.77;;
8413;SDS011;4244;48.684;9.028;2022-10-24T05:09:23;6.30;;;2.30;;
8413;SDS011;4244;48.684;9.028;2022-10-24T05:11:49;7.80;;;3.03;;
8413;SDS011;4244;48.684;9.028;2022-10-24T05:14:15;7.33;;;4.50;;
8413;SDS011;4244;48.684;9.028;2022-10-24T05:16:41;3.63;;;2.10;;
8413;SDS011;4244;48.684;9.028;2022-10-24T05:19:06;6.77;;;3.40;;
8413;SDS011;4244;48.684;9.028;2022-10-24T05:21:32;5.07;;;2.60;;
8413;SDS011;4244;48.684;9.028;2022-10-24T05:23:57;2.80;;;1.90;;
8413;SDS011;4244;48.684;9.028;2022-10-24T05:26:23;4.50;;;2.60;;
8413;SDS011;4244;48.684;9.028;2022-10-24T05:28:49;8.17;;;3.03;;
8413;SDS011;4244;48.684;9.028;2022-10-24T05:31:14;5.97;;;2.33;;
8413;SDS011;4244;48.684;9.028;2022-10-24T05:33:40;6.60;;;2.50;;
8413;SDS011;4244;48.684;9.028;2022-10-24T05:36:06;4.60;;;2.47;;
8413;SDS011;4244;48.684;9.028;2022-10-24T05:38:32;5.37;;;2.10;;
8413;SDS011;4244;48.684;9.028;2022-10-24T05:40:57;5.47;;;2.40;;
8413;SDS011;4244;48.684;9.028;2022-10-24T05:43:24;5.60;;;3.00;;
8413;SDS011;4244;48.684;9.028;2022-10-24T05:45:50;9.03;;;2.30;;
8413;SDS011;4244;48.684;9.028;2022-10-24T05:48:15;4.83;;;2.30;;
8413;SDS011;4244;48.684;9.028;2022-10-24T05:50:41;5.07;;;2.27;;
8413;SDS011;4244;48.684;9.028;2022-10-24T05:53:07;5.10;;;2.20;;
8413;SDS011;4244;48.684;9.028;2022-10-24T05:55:33;6.90;;;2.50;;
8413;SDS011;4244;48.684;9.028;2022-10-24T05:57:59;5.23;;;2.53;;
8413;SDS011;4244;48.684;9.028;2022-10-24T06:00:25;5.43;;;2.20;;
8413;SDS011;4244;48.684;9.028;2022-10-24T06:02:51;5.10;;;2.40;;
8413;SDS011;4244;48.684;9.028;2022-10-24T06:05:17;4.47;;;2.33;;
8413;SDS011;4244;48.684;9.028;2022-10-24T06:07:44;8.40;;;3.23;;
8413;SDS011;4244;48.684;9.028;2022-10-24T06:10:11;5.03;;;2.47;;
8413;SDS011;4244;48.684;9.028;2022-10-24T06:12:37;4.60;;;2.97;;
8413;SDS011;4244;48.684;9.028;2022-10-24T06:15:04;7.23;;;3.40;;
8413;SDS011;4244;48.684;9.028;2022-10-24T06:17:31;5.50;;;2.97;;
8413;SDS011;4244;48.684;9.028;2022-10-24T06:19:57;7.00;;;3.20;;
8413;SDS011;4244;48.684;9.028;2022-10-24T06:22:23;4.70;;;3.13;;
8413;SDS011;4244;48.684;9.028;2022-10-24T06:24:49;4.23;;;2.20;;
8413;SDS011;4244;48.684;9.028;2022-10-24T06:27:15;6.20;;;2.60;;
8413;SDS011;4244;48.684;9.028;2022-10-24T06:29:40;8.90;;;2.90;;
8413;SDS011;4244;48.684;9.028;2022-10-24T06:32:06;5.23;;;2.47;;
8413;SDS011;4244;48.684;9.028;2022-10-24T06:34:32;4.90;;;2.77;;
8413;SDS011;4244;48.684;9.028;2022-10-24T06:36:59;7.50;;;3.20;;
8413;SDS011;4244;48.684;9.028;2022-10-24T06:39:25;6.40;;;2.83;;
8413;SDS011;4244;48.684;9.028;2022-10-24T06:41:50;8.03;;;2.53;;
8413;SDS011;4244;48.684;9.028;2022-10-24T06:44:16;5.70;;;2.43;;
8413;SDS011;4244;48.684;9.028;2022-10-24T06:46:42;5.97;;;2.90;;
8413;SDS011;4244;48.684;9.028;2022-10-24T06:49:07;8.90;;;3.03;;
8413;SDS011;4244;48.684;9.028;2022-10-24T06:51:33;4.67;;;2.37;;
8413;SDS011;4244;48.684;9.028;2022-10-24T06:53:59;6.57;;;2.43;;
8413;SDS011;4244;48.684;9.028;2022-10-24T06:56:25;6.33;;;2.33;;
8413;SDS011;4244;48.684;9.028;2022-10-24T06:58:50;9.33;;;3.13;;
8413;SDS011;4244;48.684;9.028;2022-10-24T07:01:17;5.43;;;2.80;;
8413;SDS011;4244;48.684;9.028;2022-10-24T07:03:44;5.50;;;2.87;;
8413;SDS011;4244;48.684;9.028;2022-10-24T07:06:14;4.17;;;2.70;;
8413;SDS011;4244;48.684;9.028;2022-10-24T07:08:40;7.73;;;2.53;;
8413;SDS011;4244;48.684;9.028;2022-10-24T07:11:06;5.37;;;2.73;;
8413;SDS011;4244;48.684;9.028;2022-10-24T07:13:32;4.87;;;2.50;;
8413;SDS011;4244;48.684;9.028;2022-10-24T07:15:57;6.90;;;2.60;;
8413;SDS011;4244;48.684;9.028;2022-10-24T07:18:23;9.20;;;3.83;;
8413;SDS011;4244;48.684;9.028;2022-10-24T07:20:48;5.40;;;2.50;;
8413;SDS011;4244;48.684;9.028;2022-10-24T07:23:14;5.53;;;3.13;;
8413;SDS011;4244;48.684;9.028;2022-10-24T07:25:40;7.93;;;3.40;;
8413;SDS011;4244;48.684;9.028;2022-10-24T07:28:06;13.93;;;3.97;;
8413;SDS011;4244;48.684;9.028;2022-10-24T07:30:32;5.73;;;2.87;;
8413;SDS011;4244;48.684;9.028;2022-10-24T07:32:58;8.77;;;2.90;;
8413;SDS011;4244;48.684;9.028;2022-10-24T07:35:24;7.60;;;2.67;;
8413;SDS011;4244;48.684;9.028;2022-10-24T07:37:50;6.57;;;2.70;;
8413;SDS011;4244;48.684;9.028;2022-10-24T07:40:17;8.90;;;3.10;;
8413;SDS011;4244;48.684;9.028;2022-10-24T07:42:43;6.30;;;3.03;;
8413;SDS011;4244;48.684;9.028;2022-10-24T07:45:09;7.23;;;3.23;;
8413;SDS011;4244;48.684;9.028;2022-10-24T07:47:34;9.07;;;3.87;;
8413;SDS011;4244;48.684;9.028;2022-10-24T07:50:00;9.27;;;2.97;;
8413;SDS011;4244;48.684;9.028;2022-10-24T07:52:26;8.80;;;2.80;;
8413;SDS011;4244;48.684;9.028;2022-10-24T07:54:52;5.57;;;3.17;;
8413;SDS011;4244;48.684;9.028;2022-10-24T07:57:19;3.53;;;2.60;;
8413;SDS011;4244;48.684;9.028;2022-10-24T07:59:44;6.50;;;3.87;;
8413;SDS011;4244;48.684;9.028;2022-10-24T08:02:10;4.93;;;3.47;;
8413;SDS011;4244;48.684;9.028;2022-10-24T08:04:37;5.37;;;2.40;;
8413;SDS011;4244;48.684;9.028;2022-10-24T08:07:03;7.23;;;2.87;;
8413;SDS011;4244;48.684;9.028;2022-10-24T08:09:28;5.03;;;2.20;;
8413;SDS011;4244;48.684;9.028;2022-10-24T08:11:54;8.30;;;2.70;;
8413;SDS011;4244;48.684;9.028;2022-10-24T08:14:19;3.60;;;2.40;;
8413;SDS011;4244;48.684;9.028;2022-10-24T08:16:45;4.80;;;2.07;;
8413;SDS011;4244;48.684;9.028;2022-10-24T08:19:11;4.90;;;2.00;;
8413;SDS011;4244;48.684;9.028;2022-10-24T08:21:37;5.80;;;2.43;;
8413;SDS011;4244;48.684;9.028;2022-10-24T08:24:03;5.10;;;3.00;;
8413;SDS011;4244;48.684;9.028;2022-10-24T08:26:29;5.87;;;2.57;;
8413;SDS011;4244;48.684;9.028;2022-10-24T08:28:54;7.00;;;2.20;;
8413;SDS011;4244;48.684;9.028;2022-10-24T08:31:22;5.03;;;2.00;;
8413;SDS011;4244;48.684;9.028;2022-10-24T08:33:52;5.00;;;2.50;;
8413;SDS011;4244;48.684;9.028;2022-10-24T08:38:47;3.77;;;2.20;;
8413;SDS011;4244;48.684;9.028;2022-10-24T08:41:28;3.17;;;1.90;;
8413;SDS011;4244;48.684;9.028;2022-10-24T08:43:57;6.73;;;2.33;;
8413;SDS011;4244;48.684;9.028;2022-10-24T08:52:03;4.73;;;2.53;;
8413;SDS011;4244;48.684;9.028;2022-10-24T08:54:40;4.90;;;2.17;;
8413;SDS011;4244;48.684;9.028;2022-10-24T08:57:09;7.00;;;2.60;;
8413;SDS011;4244;48.684;9.028;2022-10-24T08:59:59;4.33;;;2.10;;
8413;SDS011;4244;48.684;9.028;2022-10-24T09:02:32;3.50;;;2.30;;
8413;SDS011;4244;48.684;9.028;2022-10-24T09:05:03;5.70;;;2.40;;
8413;SDS011;4244;48.684;9.028;2022-10-24T09:07:41;4.03;;;2.17;;
8413;SDS011;4244;48.684;9.028;2022-10-24T09:10:12;4.73;;;1.80;;
8413;SDS011;4244;48.684;9.028;2022-10-24T09:12:41;3.53;;;2.07;;
8413;SDS011;4244;48.684;9.028;2022-10-24T09:15:13;4.90;;;2.20;;
8413;SDS011;4244;48.684;9.028;2022-10-24T09:17:47;5.50;;;2.50;;
8413;SDS011;4244;48.684;9.028;2022-10-24T09:20:23;4.40;;;2.10;;
8413;SDS011;4244;48.684;9.028;2022-10-24T09:22:52;6.00;;;2.40;;
8413;SDS011;4244;48.684;9.028;2022-10-24T09:25:20;5.60;;;1.90;;
8413;SDS011;4244;48.684;9.028;2022-10-24T09:27:48;4.17;;;1.83;;
8413;SDS011;4244;48.684;9.028;2022-10-24T09:30:22;5.83;;;2.53;;
8413;SDS011;4244;48.684;9.028;2022-10-24T09:32:51;4.67;;;2.47;;
8413;SDS011;4244;48.684;9.028;2022-10-24T09:35:25;6.70;;;2.40;;
8413;SDS011;4244;48.684;9.028;2022-10-24T09:37:53;6.40;;;2.47;;
8413;SDS011;4244;48.684;9.028;2022-10-24T09:42:51;6.40;;;3.10;;
8413;SDS011;4244;48.684;9.028;2022-10-24T09:45:19;4.70;;;2.40;;
8413;SDS011;4244;48.684;9.028;2022-10-24T09:47:57;6.47;;;3.17;;
8413;SDS011;4244;48.684;9.028;2022-10-24T09:50:27;3.80;;;2.57;;
8413;SDS011;4244;48.684;9.028;2022-10-24T09:52:55;4.57;;;2.43;;
8413;SDS011;4244;48.684;9.028;2022-10-24T09:55:24;6.00;;;2.27;;
8413;SDS011;4244;48.684;9.028;2022-10-24T09:57:56;3.90;;;2.67;;
8413;SDS011;4244;48.684;9.028;2022-10-24T10:00:29;5.27;;;2.27;;
8413;SDS011;4244;48.684;9.028;2022-10-24T10:03:04;7.97;;;3.27;;
8413;SDS011;4244;48.684;9.028;2022-10-24T10:05:50;4.30;;;2.13;;
8413;SDS011;4244;48.684;9.028;2022-10-24T10:08:26;3.40;;;2.13;;
8413;SDS011;4244;48.684;9.028;2022-10-24T10:11:15;3.23;;;1.80;;
8413;SDS011;4244;48.684;9.028;2022-10-24T10:16:29;5.37;;;2.10;;
8413;SDS011;4244;48.684;9.028;2022-10-24T10:19:05;2.57;;;2.00;;
8413;SDS011;4244;48.684;9.028;2022-10-24T10:21:51;8.47;;;2.60;;
8413;SDS011;4244;48.684;9.028;2022-10-24T10:24:23;4.03;;;2.40;;
8413;SDS011;4244;48.684;9.028;2022-10-24T10:26:51;6.17;;;2.60;;
8413;SDS011;4244;48.684;9.028;2022-10-24T10:31:44;5.93;;;2.43;;
8413;SDS011;4244;48.684;9.028;2022-10-24T10:34:24;3.83;;;1.83;;
8413;SDS011;4244;48.684;9.028;2022-10-24T10:50:25;4.70;;;2.13;;
8413;SDS011;4244;48.684;9.028;2022-10-24T10:52:56;4.40;;;1.60;;
8413;SDS011;4244;48.684;9.028;2022-10-24T10:56:01;2.93;;;1.40;;
8413;SDS011;4244;48.684;9.028;2022-10-24T10:58:43;3.37;;;1.90;;
8413;SDS011;4244;48.684;9.028;2022-10-24T11:01:15;4.13;;;1.50;;
8413;SDS011;4244;48.684;9.028;2022-10-24T11:03:49;5.53;;;2.17;;
8413;SDS011;4244;48.684;9.028;2022-10-24T11:06:51;4.13;;;1.50;;
8413;SDS011;4244;48.684;9.028;2022-10-24T11:11:51;2.77;;;1.50;;
8413;SDS011;4244;48.684;9.028;2022-10-24T11:20:02;2.53;;;1.27;;
8413;SDS011;4244;48.684;9.028;2022-10-24T11:22:37;2.27;;;1.30;;
8413;SDS011;4244;48.684;9.028;2022-10-24T11:25:26;2.20;;;1.10;;
8413;SDS011;4244;48.684;9.028;2022-10-24T11:28:05;2.47;;;1.30;;
8413;SDS011;4244;48.684;9.028;2022-10-24T11:30:41;2.20;;;1.33;;
8413;SDS011;4244;48.684;9.028;2022-10-24T11:33:20;3.70;;;1.70;;
8413;SDS011;4244;48.684;9.028;2022-10-24T11:36:08;4.33;;;1.30;;
8413;SDS011;4244;48.684;9.028;2022-10-24T11:44:24;3.13;;;1.80;;
8413;SDS011;4244;48.684;9.028;2022-10-24T11:47:12;4.13;;;1.23;;
8413;SDS011;4244;48.684;9.028;2022-10-24T11:49:48;2.70;;;1.33;;
8413;SDS011;4244;48.684;9.028;2022-10-24T11:52:34;5.20;;;1.80;;
8413;SDS011;4244;48.684;9.028;2022-10-24T11:57:43;3.57;;;1.30;;
8413;SDS011;4244;48.684;9.028;2022-10-24T12:00:20;2.60;;;1.30;;
8413;SDS011;4244;48.684;9.028;2022-10-24T12:11:42;1.47;;;1.00;;
8413;SDS011;4244;48.684;9.028;2022-10-24T12:17:03;1.60;;;0.90;;
8413;SDS011;4244;48.684;9.028;2022-10-24T12:19:39;2.13;;;1.20;;
8413;SDS011;4244;48.684;9.028;2022-10-24T12:22:06;1.77;;;0.90;;
8413;SDS011;4244;48.684;9.028;2022-10-24T12:25:00;3.57;;;1.43;;
8413;SDS011;4244;48.684;9.028;2022-10-24T12:27:38;3.70;;;1.70;;
8413;SDS011;4244;48.684;9.028;2022-10-24T12:30:13;1.50;;;1.00;;
8413;SDS011;4244;48.684;9.028;2022-10-24T12:32:46;2.43;;;1.07;;
8413;SDS011;4244;48.684;9.028;2022-10-24T12:35:49;2.27;;;1.07;;
8413;SDS011;4244;48.684;9.028;2022-10-24T12:41:03;3.73;;;1.10;;
8413;SDS011;4244;48.684;9.028;2022-10-24T12:43:42;1.53;;;0.90;;
8413;SDS011;4244;48.684;9.028;2022-10-24T12:48:41;2.70;;;1.00;;
8413;SDS011;4244;48.684;9.028;2022-10-24T12:51:30;3.50;;;1.30;;
8413;SDS011;4244;48.684;9.028;2022-10-24T13:01:41;1.70;;;1.10;;
8413;SDS011;4244;48.684;9.028;2022-10-24T13:21:07;2.20;;;1.20;;
8413;SDS011;4244;48.684;9.028;2022-10-24T13:23:38;3.63;;;1.63;;
8413;SDS011;4244;48.684;9.028;2022-10-24T13:26:04;4.30;;;1.40;;
8413;SDS011;4244;48.684;9.028;2022-10-24T13:28:33;3.00;;;2.10;;
8413;SDS011;4244;48.684;9.028;2022-10-24T13:38:41;8.13;;;2.30;;
8413;SDS011;4244;48.684;9.028;2022-10-24T13:41:30;2.43;;;1.63;;
8413;SDS011;4244;48.684;9.028;2022-10-24T13:44:00;3.20;;;1.73;;
8413;SDS011;4244;48.684;9.028;2022-10-24T13:46:31;3.70;;;2.20;;
8413;SDS011;4244;48.684;9.028;2022-10-24T13:49:19;4.70;;;1.97;;
8413;SDS011;4244;48.684;9.028;2022-10-24T13:51:50;4.83;;;1.70;;
8413;SDS011;4244;48.684;9.028;2022-10-24T13:56:51;3.53;;;1.70;;
8413;SDS011;4244;48.684;9.028;2022-10-24T13:59:36;4.80;;;1.77;;
8413;SDS011;4244;48.684;9.028;2022-10-24T14:02:17;2.90;;;1.77;;
8413;SDS011;4244;48.684;9.028;2022-10-24T14:04:46;4.80;;;1.90;;
8413;SDS011;4244;48.684;9.028;2022-10-24T14:07:14;3.40;;;1.80;;
8413;SDS011;4244;48.684;9.028;2022-10-24T14:10:20;3.40;;;1.57;;
8413;SDS011;4244;48.684;9.028;2022-10-24T14:12:41;3.43;;;1.83;;
8413;SDS011;4244;48.684;9.028;2022-10-24T14:15:19;2.50;;;1.40;;
8413;SDS011;4244;48.684;9.028;2022-10-24T14:18:02;3.90;;;1.60;;
8413;SDS011;4244;48.684;9.028;2022-10-24T14:20:35;3.97;;;1.87;;
8413;SDS011;4244;48.684;9.028;2022-10-24T14:23:01;3.07;;;1.80;;
8413;SDS011;4244;48.684;9.028;2022-10-24T14:25:39;4.17;;;2.20;;
8413;SDS011;4244;48.684;9.028;2022-10-24T14:28:09;3.90;;;2.27;;
8413;SDS011;4244;48.684;9.028;2022-10-24T14:30:39;2.70;;;1.53;;
8413;SDS011;4244;48.684;9.028;2022-10-24T14:35:39;3.00;;;1.73;;
8413;SDS011;4244;48.684;9.028;2022-10-24T14:38:05;3.27;;;2.00;;
8413;SDS011;4244;48.684;9.028;2022-10-24T14:40:31;4.30;;;2.87;;
8413;SDS011;4244;48.684;9.028;2022-10-24T14:42:57;3.17;;;2.37;;
8413;SDS011;4244;48.684;9.028;2022-10-24T14:45:28;2.70;;;1.70;;
8413;SDS011;4244;48.684;9.028;2022-10-24T14:47:55;2.50;;;1.83;;
8413;SDS011;4244;48.684;9.028;2022-10-24T14:50:32;2.43;;;1.80;;
8413;SDS011;4244;48.684;9.028;2022-10-24T14:52:59;2.90;;;1.80;;
8413;SDS011;4244;48.684;9.028;2022-10-24T14:55:25;2.80;;;1.63;;
8413;SDS011;4244;48.684;9.028;2022-10-24T14:57:51;2.00;;;1.37;;
8413;SDS011;4244;48.684;9.028;2022-10-24T15:00:18;3.23;;;1.50;;
8413;SDS011;4244;48.684;9.028;2022-10-24T15:02:46;2.60;;;1.73;;
8413;SDS011;4244;48.684;9.028;2022-10-24T15:07:43;3.10;;;1.97;;
8413;SDS011;4244;48.684;9.028;2022-10-24T15:17:46;3.50;;;1.80;;
8413;SDS011;4244;48.684;9.028;2022-10-24T15:20:14;3.13;;;1.60;;
8413;SDS011;4244;48.684;9.028;2022-10-24T15:22:46;2.50;;;1.60;;
8413;SDS011;4244;48.684;9.028;2022-10-24T15:25:17;2.80;;;1.90;;
8413;SDS011;4244;48.684;9.028;2022-10-24T15:27:48;4.33;;;1.60;;
8413;SDS011;4244;48.684;9.028;2022-10-24T15:30:19;3.23;;;1.93;;
8413;SDS011;4244;48.684;9.028;2022-10-24T15:32:46;2.13;;;1.53;;
8413;SDS011;4244;48.684;9.028;2022-10-24T15:35:13;2.13;;;1.43;;
8413;SDS011;4244;48.684;9.028;2022-10-24T15:37:40;3.63;;;1.93;;
8413;SDS011;4244;48.684;9.028;2022-10-24T15:40:19;2.50;;;1.97;;
8413;SDS011;4244;48.684;9.028;2022-10-24T15:42:47;2.30;;;1.70;;
8413;SDS011;4244;48.684;9.028;2022-10-24T15:45:14;2.40;;;2.00;;
8413;SDS011;4244;48.684;9.028;2022-10-24T15:47:40;3.90;;;1.73;;
8413;SDS011;4244;48.684;9.028;2022-10-24T15:50:06;3.27;;;1.90;;
8413;SDS011;4244;48.684;9.028;2022-10-24T15:52:34;2.40;;;1.80;;
8413;SDS011;4244;48.684;9.028;2022-10-24T15:54:59;2.67;;;1.80;;
8413;SDS011;4244;48.684;9.028;2022-10-24T15:57:25;3.40;;;2.27;;
8413;SDS011;4244;48.684;9.028;2022-10-24T15:59:51;3.10;;;1.83;;
8413;SDS011;4244;48.684;9.028;2022-10-24T16:02:21;3.80;;;2.20;;
8413;SDS011;4244;48.684;9.028;2022-10-24T16:04:47;2.77;;;2.00;;
8413;SDS011;4244;48.684;9.028;2022-10-24T16:07:13;3.60;;;1.80;;
8413;SDS011;4244;48.684;9.028;2022-10-24T16:09:39;3.20;;;2.23;;
8413;SDS011;4244;48.684;9.028;2022-10-24T16:12:04;5.50;;;1.90;;
8413;SDS011;4244;48.684;9.028;2022-10-24T16:14:30;4.83;;;2.63;;
8413;SDS011;4244;48.684;9.028;2022-10-24T16:16:56;4.43;;;2.23;;
8413;SDS011;4244;48.684;9.028;2022-10-24T16:19:22;3.03;;;1.63;;
8413;SDS011;4244;48.684;9.028;2022-10-24T16:21:50;2.80;;;1.90;;
8413;SDS011;4244;48.684;9.028;2022-10-24T16:24:17;2.83;;;2.13;;
8413;SDS011;4244;48.684;9.028;2022-10-24T16:26:43;4.23;;;2.37;;
8413;SDS011;4244;48.684;9.028;2022-10-24T16:29:08;3.83;;;2.10;;
8413;SDS011;4244;48.684;9.028;2022-10-24T16:31:34;2.90;;;2.13;;
8413;SDS011;4244;48.684;9.028;2022-10-24T16:34:00;2.90;;;2.20;;
8413;SDS011;4244;48.684;9.028;2022-10-24T16:36:26;7.13;;;2.90;;
8413;SDS011;4244;48.684;9.028;2022-10-24T16:38:52;3.00;;;2.40;;
8413;SDS011;4244;48.684;9.028;2022-10-24T16:41:19;5.10;;;2.17;;
8413;SDS011;4244;48.684;9.028;2022-10-24T16:43:46;3.30;;;2.57;;
8413;SDS011;4244;48.684;9.028;2022-10-24T16:46:13;3.00;;;2.20;;
8413;SDS011;4244;48.684;9.028;2022-10-24T16:48:40;2.70;;;2.23;;
8413;SDS011;4244;48.684;9.028;2022-10-24T16:51:10;2.70;;;1.70;;
8413;SDS011;4244;48.684;9.028;2022-10-24T16:53:38;2.50;;;1.87;;
8413;SDS011;4244;48.684;9.028;2022-10-24T16:56:03;5.63;;;2.70;;
8413;SDS011;4244;48.684;9.028;2022-10-24T16:58:29;3.27;;;2.20;;
8413;SDS011;4244;48.684;9.028;2022-10-24T17:01:01;3.40;;;2.50;;
8413;SDS011;4244;48.684;9.028;2022-10-24T17:03:28;3.80;;;2.60;;
8413;SDS011;4244;48.684;9.028;2022-10-24T17:05:54;2.23;;;2.03;;
8413;SDS011;4244;48.684;9.028;2022-10-24T17:08:19;3.40;;;2.60;;
8413;SDS011;4244;48.684;9.028;2022-10-24T17:10:45;3.10;;;2.33;;
8413;SDS011;4244;48.684;9.028;2022-10-24T17:13:10;4.40;;;2.73;;
8413;SDS011;4244;48.684;9.028;2022-10-24T17:15:37;3.20;;;2.57;;
8413;SDS011;4244;48.684;9.028;2022-10-24T17:18:03;3.87;;;2.37;;
8413;SDS011;4244;48.684;9.028;2022-10-24T17:20:29;7.60;;;3.50;;
8413;SDS011;4244;48.684;9.028;2022-10-24T17:22:55;4.80;;;3.57;;
8413;SDS011;4244;48.684;9.028;2022-10-24T17:25:23;5.80;;;4.20;;
8413;SDS011;4244;48.684;9.028;2022-10-24T17:27:50;4.27;;;3.50;;
8413;SDS011;4244;48.684;9.028;2022-10-24T17:30:17;4.57;;;3.50;;
8413;SDS011;4244;48.684;9.028;2022-10-24T17:32:45;6.70;;;3.47;;
8413;SDS011;4244;48.684;9.028;2022-10-24T17:35:12;4.80;;;3.83;;
8413;SDS011;4244;48.684;9.028;2022-10-24T17:37:54;4.27;;;3.50;;
8413;SDS011;4244;48.684;9.028;2022-10-24T17:40:24;3.40;;;2.80;;
8413;SDS011;4244;48.684;9.028;2022-10-24T17:42:52;4.03;;;3.27;;
8413;SDS011;4244;48.684;9.028;2022-10-24T17:45:19;5.80;;;4.03;;
8413;SDS011;4244;48.684;9.028;2022-10-24T17:47:46;5.00;;;2.70;;
8413;SDS011;4244;48.684;9.028;2022-10-24T17:50:13;3.30;;;3.00;;
8413;SDS011;4244;48.684;9.028;2022-10-24T17:52:39;2.23;;;2.00;;